Bonnefoy, France

8:36 PM CET on January 21, 2017 (GMT +0100)
Toulouse | | Change Station

Elev 502 ft 43.63 °N, 1.37 °E | Updated 6 minutes ago

Clear
Clear
39 °F
Feels Like 39 °F
N
2
Wind Variable Wind from NW

Today
High -- | Low -- °F
--% Chance of Precip.
Yesterday
High -- | Low -- °F
Precip. -- in
Pressure 30.15 in
Visibility -9999.0 miles
Clouds
Dew Point 28 °F
Humidity 65%
Rainfall 0.00 in
Snow Depth Not available.
8:20 AM 5:50 PM
Waning Crescent, 33% visible
METAR LFBO 211930Z AUTO 32002KT CAVOK 04/M02 Q1021 NOSIG
Pressure 30.15 in
Visibility -9999.0 miles
Clouds
Dew Point 28 °F
Humidity 65%
Rainfall 0.00 in
Snow Depth Not available.
8:20 AM 5:50 PM
Waning Crescent, 33% visible
METAR LFBO 211930Z AUTO 32002KT CAVOK 04/M02 Q1021 NOSIG

Get Your Daily Forecast Email!

Thanks for signing up!

Be on the lookout for a verification email in your inbox.

You'll start receiving the daily forecast at 8 AM.

×

10-Day Weather Forecast

×

Almanac

Astronomy

Jan. 21, 2017 Rise Set
Actual Time
Civil Twilight
Nautical Twilight
Astronomical Twilight
Moon
Length of Visible Light
Length of Day
Tomorrow will be .
, % of the Moon is Illuminated

Today's Extremes

Country Highs Country Lows

Community

WunderPhotos

Upload Photos

1,962,540 photos uploaded!

WunderBlog® & News

Nearby

Air Quality

  Air Quality AQ Index Pollutant
Not available.

Snow Depth

Station Depth Elevation

Earthquake Activity

City Distance Mag. Time & Date
Minimum magnitude displayed is 2.5.

Coastal Water Temperatures

Place Temperature

Stations

Nearby Weather Stations

Station Location Temp. Windchill Dew Point Humidity Wind Precip. Elev Updated Type